sensor_id;sensor_type;location;lat;lon;timestamp;P1;durP1;ratioP1;P2;durP2;ratioP2
56413;SDS011;42318;48.452;19.526;2024-02-14T00:00:22;2.05;;;1.48;;
56413;SDS011;42318;48.452;19.526;2024-02-14T00:03:45;4.03;;;2.00;;
56413;SDS011;42318;48.452;19.526;2024-02-14T00:06:45;3.22;;;2.00;;
56413;SDS011;42318;48.452;19.526;2024-02-14T00:09:46;2.25;;;1.67;;
56413;SDS011;42318;48.452;19.526;2024-02-14T00:12:47;6.20;;;1.77;;
56413;SDS011;42318;48.452;19.526;2024-02-14T00:15:48;2.53;;;1.70;;
56413;SDS011;42318;48.452;19.526;2024-02-14T00:18:49;2.83;;;1.80;;
56413;SDS011;42318;48.452;19.526;2024-02-14T00:21:51;4.05;;;1.80;;
56413;SDS011;42318;48.452;19.526;2024-02-14T00:24:51;2.47;;;1.60;;
56413;SDS011;42318;48.452;19.526;2024-02-14T00:27:52;2.50;;;1.77;;
56413;SDS011;42318;48.452;19.526;2024-02-14T00:30:54;2.53;;;1.73;;
56413;SDS011;42318;48.452;19.526;2024-02-14T00:33:55;4.28;;;1.92;;
56413;SDS011;42318;48.452;19.526;2024-02-14T00:36:56;2.47;;;1.70;;
56413;SDS011;42318;48.452;19.526;2024-02-14T00:39:56;2.55;;;1.60;;
56413;SDS011;42318;48.452;19.526;2024-02-14T00:42:58;3.90;;;1.92;;
56413;SDS011;42318;48.452;19.526;2024-02-14T00:45:58;3.08;;;2.10;;
56413;SDS011;42318;48.452;19.526;2024-02-14T00:48:59;2.05;;;1.40;;
56413;SDS011;42318;48.452;19.526;2024-02-14T00:52:00;2.33;;;1.60;;
56413;SDS011;42318;48.452;19.526;2024-02-14T00:55:00;2.78;;;2.05;;
56413;SDS011;42318;48.452;19.526;2024-02-14T00:58:04;2.22;;;1.60;;
56413;SDS011;42318;48.452;19.526;2024-02-14T01:01:04;1.80;;;1.45;;
56413;SDS011;42318;48.452;19.526;2024-02-14T01:04:05;3.97;;;1.90;;
56413;SDS011;42318;48.452;19.526;2024-02-14T01:07:07;2.70;;;1.77;;
56413;SDS011;42318;48.452;19.526;2024-02-14T01:10:08;3.10;;;1.60;;
56413;SDS011;42318;48.452;19.526;2024-02-14T01:13:10;3.03;;;1.40;;
56413;SDS011;42318;48.452;19.526;2024-02-14T01:16:10;2.47;;;1.60;;
56413;SDS011;42318;48.452;19.526;2024-02-14T01:19:11;1.77;;;1.45;;
56413;SDS011;42318;48.452;19.526;2024-02-14T01:22:12;2.00;;;1.67;;
56413;SDS011;42318;48.452;19.526;2024-02-14T01:25:16;2.00;;;1.45;;
56413;SDS011;42318;48.452;19.526;2024-02-14T01:28:17;1.88;;;1.35;;
56413;SDS011;42318;48.452;19.526;2024-02-14T01:31:17;2.33;;;1.27;;
56413;SDS011;42318;48.452;19.526;2024-02-14T01:34:18;2.95;;;1.65;;
56413;SDS011;42318;48.452;19.526;2024-02-14T01:37:19;1.90;;;1.48;;
56413;SDS011;42318;48.452;19.526;2024-02-14T01:40:21;2.35;;;1.50;;
56413;SDS011;42318;48.452;19.526;2024-02-14T01:43:21;2.45;;;1.80;;
56413;SDS011;42318;48.452;19.526;2024-02-14T01:46:22;1.75;;;1.30;;
56413;SDS011;42318;48.452;19.526;2024-02-14T01:49:23;1.98;;;1.27;;
56413;SDS011;42318;48.452;19.526;2024-02-14T01:52:24;1.70;;;1.23;;
56413;SDS011;42318;48.452;19.526;2024-02-14T01:55:24;2.50;;;1.40;;
56413;SDS011;42318;48.452;19.526;2024-02-14T01:58:28;1.58;;;1.20;;
56413;SDS011;42318;48.452;19.526;2024-02-14T02:01:30;2.05;;;1.67;;
56413;SDS011;42318;48.452;19.526;2024-02-14T02:04:31;2.00;;;1.45;;
56413;SDS011;42318;48.452;19.526;2024-02-14T02:07:32;2.58;;;1.50;;
56413;SDS011;42318;48.452;19.526;2024-02-14T02:10:34;2.63;;;1.60;;
56413;SDS011;42318;48.452;19.526;2024-02-14T02:13:34;1.92;;;0.93;;
56413;SDS011;42318;48.452;19.526;2024-02-14T02:16:35;1.65;;;1.20;;
56413;SDS011;42318;48.452;19.526;2024-02-14T02:19:37;2.47;;;1.42;;
56413;SDS011;42318;48.452;19.526;2024-02-14T02:22:41;1.73;;;1.25;;
56413;SDS011;42318;48.452;19.526;2024-02-14T02:25:44;2.00;;;1.40;;
56413;SDS011;42318;48.452;19.526;2024-02-14T02:28:45;1.63;;;1.10;;
56413;SDS011;42318;48.452;19.526;2024-02-14T02:31:46;1.95;;;1.33;;
56413;SDS011;42318;48.452;19.526;2024-02-14T02:34:47;2.13;;;1.25;;
56413;SDS011;42318;48.452;19.526;2024-02-14T02:37:48;1.55;;;1.13;;
56413;SDS011;42318;48.452;19.526;2024-02-14T02:40:50;1.70;;;1.10;;
56413;SDS011;42318;48.452;19.526;2024-02-14T02:43:51;1.88;;;1.08;;
56413;SDS011;42318;48.452;19.526;2024-02-14T02:46:53;1.60;;;1.10;;
56413;SDS011;42318;48.452;19.526;2024-02-14T02:49:55;1.63;;;1.00;;
56413;SDS011;42318;48.452;19.526;2024-02-14T02:52:57;1.60;;;1.00;;
56413;SDS011;42318;48.452;19.526;2024-02-14T02:55:57;1.58;;;1.15;;
56413;SDS011;42318;48.452;19.526;2024-02-14T02:59:00;1.27;;;1.00;;
56413;SDS011;42318;48.452;19.526;2024-02-14T03:02:03;3.03;;;1.02;;
56413;SDS011;42318;48.452;19.526;2024-02-14T03:05:08;1.40;;;1.20;;
56413;SDS011;42318;48.452;19.526;2024-02-14T03:08:10;1.55;;;1.00;;
56413;SDS011;42318;48.452;19.526;2024-02-14T03:11:16;2.20;;;1.10;;
56413;SDS011;42318;48.452;19.526;2024-02-14T03:14:17;1.20;;;1.00;;
56413;SDS011;42318;48.452;19.526;2024-02-14T03:17:18;1.20;;;1.00;;
56413;SDS011;42318;48.452;19.526;2024-02-14T03:20:18;1.50;;;1.00;;
56413;SDS011;42318;48.452;19.526;2024-02-14T03:23:20;2.25;;;1.13;;
56413;SDS011;42318;48.452;19.526;2024-02-14T03:26:20;1.98;;;1.10;;
56413;SDS011;42318;48.452;19.526;2024-02-14T03:29:21;1.13;;;1.00;;
56413;SDS011;42318;48.452;19.526;2024-02-14T03:32:21;1.45;;;0.98;;
56413;SDS011;42318;48.452;19.526;2024-02-14T03:35:23;1.83;;;1.10;;
56413;SDS011;42318;48.452;19.526;2024-02-14T03:38:27;2.20;;;1.10;;
56413;SDS011;42318;48.452;19.526;2024-02-14T03:41:28;2.42;;;1.20;;
56413;SDS011;42318;48.452;19.526;2024-02-14T03:44:29;1.65;;;1.15;;
56413;SDS011;42318;48.452;19.526;2024-02-14T03:47:29;1.98;;;1.08;;
56413;SDS011;42318;48.452;19.526;2024-02-14T03:50:31;1.40;;;1.10;;
56413;SDS011;42318;48.452;19.526;2024-02-14T03:53:33;2.95;;;1.45;;
56413;SDS011;42318;48.452;19.526;2024-02-14T03:56:33;3.63;;;1.10;;
56413;SDS011;42318;48.452;19.526;2024-02-14T03:59:37;1.75;;;1.00;;
56413;SDS011;42318;48.452;19.526;2024-02-14T04:02:39;2.65;;;1.10;;
56413;SDS011;42318;48.452;19.526;2024-02-14T04:05:40;1.02;;;0.90;;
56413;SDS011;42318;48.452;19.526;2024-02-14T04:08:40;1.92;;;1.00;;
56413;SDS011;42318;48.452;19.526;2024-02-14T04:11:41;1.45;;;0.85;;
56413;SDS011;42318;48.452;19.526;2024-02-14T04:14:42;1.40;;;0.93;;
56413;SDS011;42318;48.452;19.526;2024-02-14T04:17:42;3.35;;;1.08;;
56413;SDS011;42318;48.452;19.526;2024-02-14T04:20:43;1.65;;;1.00;;
56413;SDS011;42318;48.452;19.526;2024-02-14T04:23:44;1.10;;;0.80;;
56413;SDS011;42318;48.452;19.526;2024-02-14T04:26:44;1.60;;;0.98;;
56413;SDS011;42318;48.452;19.526;2024-02-14T04:29:45;2.42;;;1.10;;
56413;SDS011;42318;48.452;19.526;2024-02-14T04:32:46;0.88;;;0.80;;
56413;SDS011;42318;48.452;19.526;2024-02-14T04:35:47;1.48;;;0.95;;
56413;SDS011;42318;48.452;19.526;2024-02-14T04:38:48;1.13;;;0.90;;
56413;SDS011;42318;48.452;19.526;2024-02-14T04:41:49;1.23;;;0.73;;
56413;SDS011;42318;48.452;19.526;2024-02-14T04:44:50;2.25;;;1.13;;
56413;SDS011;42318;48.452;19.526;2024-02-14T04:47:51;1.52;;;1.20;;
56413;SDS011;42318;48.452;19.526;2024-02-14T04:50:51;2.50;;;0.85;;
56413;SDS011;42318;48.452;19.526;2024-02-14T04:53:53;2.28;;;0.85;;
56413;SDS011;42318;48.452;19.526;2024-02-14T04:56:54;1.33;;;1.00;;
56413;SDS011;42318;48.452;19.526;2024-02-14T04:59:55;1.10;;;0.80;;
56413;SDS011;42318;48.452;19.526;2024-02-14T05:02:55;1.30;;;1.00;;
56413;SDS011;42318;48.452;19.526;2024-02-14T05:05:57;1.15;;;0.88;;
56413;SDS011;42318;48.452;19.526;2024-02-14T05:08:59;1.20;;;0.88;;
56413;SDS011;42318;48.452;19.526;2024-02-14T05:12:00;2.25;;;0.90;;
56413;SDS011;42318;48.452;19.526;2024-02-14T05:15:00;2.30;;;0.80;;
56413;SDS011;42318;48.452;19.526;2024-02-14T05:18:01;0.73;;;0.70;;
56413;SDS011;42318;48.452;19.526;2024-02-14T05:21:06;1.30;;;0.98;;
56413;SDS011;42318;48.452;19.526;2024-02-14T05:24:08;1.35;;;0.80;;
56413;SDS011;42318;48.452;19.526;2024-02-14T05:27:08;1.52;;;0.75;;
56413;SDS011;42318;48.452;19.526;2024-02-14T05:30:09;1.10;;;0.70;;
56413;SDS011;42318;48.452;19.526;2024-02-14T05:33:10;1.42;;;0.63;;
56413;SDS011;42318;48.452;19.526;2024-02-14T05:36:11;1.15;;;0.70;;
56413;SDS011;42318;48.452;19.526;2024-02-14T05:39:12;0.65;;;0.60;;
56413;SDS011;42318;48.452;19.526;2024-02-14T05:42:14;0.70;;;0.70;;
56413;SDS011;42318;48.452;19.526;2024-02-14T05:45:16;1.00;;;0.80;;
56413;SDS011;42318;48.452;19.526;2024-02-14T05:48:17;1.15;;;0.80;;
56413;SDS011;42318;48.452;19.526;2024-02-14T05:51:17;1.38;;;0.85;;
56413;SDS011;42318;48.452;19.526;2024-02-14T05:54:18;1.02;;;0.63;;
56413;SDS011;42318;48.452;19.526;2024-02-14T05:57:19;1.00;;;0.80;;
56413;SDS011;42318;48.452;19.526;2024-02-14T06:00:21;1.50;;;0.80;;
56413;SDS011;42318;48.452;19.526;2024-02-14T06:03:22;1.00;;;0.63;;
56413;SDS011;42318;48.452;19.526;2024-02-14T06:06:23;0.77;;;0.63;;
56413;SDS011;42318;48.452;19.526;2024-02-14T06:09:24;0.95;;;0.70;;
56413;SDS011;42318;48.452;19.526;2024-02-14T06:12:25;1.20;;;0.80;;
56413;SDS011;42318;48.452;19.526;2024-02-14T06:15:25;1.50;;;0.75;;
56413;SDS011;42318;48.452;19.526;2024-02-14T06:18:26;1.67;;;0.80;;
56413;SDS011;42318;48.452;19.526;2024-02-14T06:21:27;1.33;;;0.82;;
56413;SDS011;42318;48.452;19.526;2024-02-14T06:24:28;0.73;;;0.70;;
56413;SDS011;42318;48.452;19.526;2024-02-14T06:27:28;1.05;;;0.82;;
56413;SDS011;42318;48.452;19.526;2024-02-14T06:30:29;1.15;;;0.95;;
56413;SDS011;42318;48.452;19.526;2024-02-14T06:33:29;0.82;;;0.70;;
56413;SDS011;42318;48.452;19.526;2024-02-14T06:36:30;0.75;;;0.60;;
56413;SDS011;42318;48.452;19.526;2024-02-14T06:39:31;1.77;;;1.10;;
56413;SDS011;42318;48.452;19.526;2024-02-14T06:42:32;1.10;;;0.90;;
56413;SDS011;42318;48.452;19.526;2024-02-14T06:45:32;1.70;;;1.10;;
56413;SDS011;42318;48.452;19.526;2024-02-14T06:48:33;1.40;;;0.82;;
56413;SDS011;42318;48.452;19.526;2024-02-14T06:51:34;1.50;;;0.98;;
56413;SDS011;42318;48.452;19.526;2024-02-14T06:54:35;1.38;;;1.00;;
56413;SDS011;42318;48.452;19.526;2024-02-14T06:57:35;2.85;;;1.00;;
56413;SDS011;42318;48.452;19.526;2024-02-14T07:00:36;1.70;;;1.05;;
56413;SDS011;42318;48.452;19.526;2024-02-14T07:03:36;1.73;;;1.20;;
56413;SDS011;42318;48.452;19.526;2024-02-14T07:06:37;1.60;;;1.00;;
56413;SDS011;42318;48.452;19.526;2024-02-14T07:09:37;3.53;;;1.15;;
56413;SDS011;42318;48.452;19.526;2024-02-14T07:12:39;1.92;;;1.17;;
56413;SDS011;42318;48.452;19.526;2024-02-14T07:15:40;1.52;;;0.98;;
56413;SDS011;42318;48.452;19.526;2024-02-14T07:18:41;2.00;;;1.27;;
56413;SDS011;42318;48.452;19.526;2024-02-14T07:21:41;1.65;;;1.13;;
56413;SDS011;42318;48.452;19.526;2024-02-14T07:24:42;2.38;;;1.40;;
56413;SDS011;42318;48.452;19.526;2024-02-14T07:27:42;1.63;;;1.15;;
56413;SDS011;42318;48.452;19.526;2024-02-14T07:30:43;2.00;;;1.70;;
56413;SDS011;42318;48.452;19.526;2024-02-14T07:33:44;2.75;;;1.45;;
56413;SDS011;42318;48.452;19.526;2024-02-14T07:36:47;1.63;;;1.30;;
56413;SDS011;42318;48.452;19.526;2024-02-14T07:39:47;1.75;;;1.23;;
56413;SDS011;42318;48.452;19.526;2024-02-14T07:42:48;2.42;;;1.60;;
56413;SDS011;42318;48.452;19.526;2024-02-14T07:45:49;2.33;;;1.38;;
56413;SDS011;42318;48.452;19.526;2024-02-14T07:48:50;3.95;;;1.52;;
56413;SDS011;42318;48.452;19.526;2024-02-14T07:51:51;2.50;;;1.55;;
56413;SDS011;42318;48.452;19.526;2024-02-14T07:54:55;2.67;;;1.67;;
56413;SDS011;42318;48.452;19.526;2024-02-14T08:00:57;3.05;;;1.58;;
56413;SDS011;42318;48.452;19.526;2024-02-14T08:03:59;3.10;;;1.88;;
56413;SDS011;42318;48.452;19.526;2024-02-14T08:07:00;2.70;;;1.38;;
56413;SDS011;42318;48.452;19.526;2024-02-14T08:10:00;2.70;;;1.67;;
56413;SDS011;42318;48.452;19.526;2024-02-14T08:13:01;1.90;;;1.52;;
56413;SDS011;42318;48.452;19.526;2024-02-14T08:16:04;2.40;;;1.70;;
56413;SDS011;42318;48.452;19.526;2024-02-14T08:19:07;2.10;;;1.42;;
56413;SDS011;42318;48.452;19.526;2024-02-14T08:22:07;2.45;;;1.65;;
56413;SDS011;42318;48.452;19.526;2024-02-14T08:25:08;2.30;;;1.55;;
56413;SDS011;42318;48.452;19.526;2024-02-14T08:28:09;3.03;;;1.60;;
56413;SDS011;42318;48.452;19.526;2024-02-14T08:31:10;2.20;;;1.75;;
56413;SDS011;42318;48.452;19.526;2024-02-14T08:34:12;3.38;;;1.67;;
56413;SDS011;42318;48.452;19.526;2024-02-14T08:37:12;2.10;;;1.50;;
56413;SDS011;42318;48.452;19.526;2024-02-14T08:40:14;2.95;;;1.80;;
56413;SDS011;42318;48.452;19.526;2024-02-14T08:43:15;2.42;;;1.50;;
56413;SDS011;42318;48.452;19.526;2024-02-14T08:46:17;2.60;;;1.60;;
56413;SDS011;42318;48.452;19.526;2024-02-14T08:49:18;2.20;;;1.70;;
56413;SDS011;42318;48.452;19.526;2024-02-14T08:52:19;2.30;;;1.42;;
56413;SDS011;42318;48.452;19.526;2024-02-14T08:55:19;2.72;;;1.95;;
56413;SDS011;42318;48.452;19.526;2024-02-14T08:58:20;3.25;;;1.80;;
56413;SDS011;42318;48.452;19.526;2024-02-14T09:01:22;2.70;;;2.10;;
56413;SDS011;42318;48.452;19.526;2024-02-14T09:04:23;2.65;;;2.00;;
56413;SDS011;42318;48.452;19.526;2024-02-14T09:07:23;4.53;;;2.40;;
56413;SDS011;42318;48.452;19.526;2024-02-14T09:10:24;3.53;;;2.30;;
56413;SDS011;42318;48.452;19.526;2024-02-14T09:13:25;3.63;;;2.05;;
56413;SDS011;42318;48.452;19.526;2024-02-14T09:16:27;3.63;;;2.08;;
56413;SDS011;42318;48.452;19.526;2024-02-14T09:19:28;2.97;;;1.95;;
56413;SDS011;42318;48.452;19.526;2024-02-14T09:22:30;2.42;;;1.92;;
56413;SDS011;42318;48.452;19.526;2024-02-14T09:25:30;3.20;;;2.10;;
56413;SDS011;42318;48.452;19.526;2024-02-14T09:28:31;2.45;;;1.80;;
56413;SDS011;42318;48.452;19.526;2024-02-14T09:31:33;2.35;;;1.85;;
56413;SDS011;42318;48.452;19.526;2024-02-14T09:34:34;3.13;;;1.90;;
56413;SDS011;42318;48.452;19.526;2024-02-14T09:37:35;2.42;;;1.98;;
56413;SDS011;42318;48.452;19.526;2024-02-14T09:40:38;2.90;;;1.88;;
56413;SDS011;42318;48.452;19.526;2024-02-14T09:43:43;2.67;;;1.88;;
56413;SDS011;42318;48.452;19.526;2024-02-14T09:46:44;3.42;;;2.20;;
56413;SDS011;42318;48.452;19.526;2024-02-14T09:49:46;2.65;;;1.80;;
56413;SDS011;42318;48.452;19.526;2024-02-14T09:52:50;4.65;;;2.10;;
56413;SDS011;42318;48.452;19.526;2024-02-14T09:58:53;2.92;;;1.95;;
56413;SDS011;42318;48.452;19.526;2024-02-14T10:01:56;2.95;;;1.83;;
56413;SDS011;42318;48.452;19.526;2024-02-14T10:04:57;3.22;;;1.83;;
56413;SDS011;42318;48.452;19.526;2024-02-14T10:07:58;4.72;;;1.95;;
56413;SDS011;42318;48.452;19.526;2024-02-14T10:11:01;2.75;;;2.05;;
56413;SDS011;42318;48.452;19.526;2024-02-14T10:14:04;4.32;;;1.75;;
56413;SDS011;42318;48.452;19.526;2024-02-14T10:17:16;3.78;;;1.83;;
56413;SDS011;42318;48.452;19.526;2024-02-14T10:20:22;4.82;;;1.80;;
56413;SDS011;42318;48.452;19.526;2024-02-14T10:23:22;3.47;;;1.80;;
56413;SDS011;42318;48.452;19.526;2024-02-14T10:26:26;3.57;;;2.10;;
56413;SDS011;42318;48.452;19.526;2024-02-14T10:29:27;2.65;;;1.80;;
56413;SDS011;42318;48.452;19.526;2024-02-14T10:32:30;4.50;;;1.88;;
56413;SDS011;42318;48.452;19.526;2024-02-14T10:35:30;3.67;;;1.85;;
56413;SDS011;42318;48.452;19.526;2024-02-14T10:38:32;2.22;;;1.70;;
56413;SDS011;42318;48.452;19.526;2024-02-14T10:41:36;2.70;;;1.83;;
56413;SDS011;42318;48.452;19.526;2024-02-14T10:44:37;3.20;;;2.00;;
56413;SDS011;42318;48.452;19.526;2024-02-14T10:47:38;2.75;;;1.90;;
56413;SDS011;42318;48.452;19.526;2024-02-14T10:50:42;4.57;;;2.17;;
56413;SDS011;42318;48.452;19.526;2024-02-14T10:53:45;3.33;;;1.83;;
56413;SDS011;42318;48.452;19.526;2024-02-14T10:56:50;3.97;;;1.85;;
56413;SDS011;42318;48.452;19.526;2024-02-14T10:59:52;4.07;;;2.20;;
56413;SDS011;42318;48.452;19.526;2024-02-14T11:02:54;2.25;;;1.75;;
56413;SDS011;42318;48.452;19.526;2024-02-14T11:05:55;3.13;;;2.08;;
56413;SDS011;42318;48.452;19.526;2024-02-14T11:09:03;7.38;;;2.65;;
56413;SDS011;42318;48.452;19.526;2024-02-14T11:12:12;5.20;;;2.13;;
56413;SDS011;42318;48.452;19.526;2024-02-14T11:15:22;3.88;;;2.00;;
56413;SDS011;42318;48.452;19.526;2024-02-14T11:18:25;3.15;;;2.03;;
56413;SDS011;42318;48.452;19.526;2024-02-14T11:21:30;4.57;;;2.42;;
56413;SDS011;42318;48.452;19.526;2024-02-14T11:24:31;6.50;;;2.40;;
56413;SDS011;42318;48.452;19.526;2024-02-14T11:27:35;4.22;;;2.33;;
56413;SDS011;42318;48.452;19.526;2024-02-14T11:30:36;3.55;;;1.90;;
56413;SDS011;42318;48.452;19.526;2024-02-14T11:33:36;7.60;;;2.70;;
56413;SDS011;42318;48.452;19.526;2024-02-14T11:36:37;3.47;;;2.72;;
56413;SDS011;42318;48.452;19.526;2024-02-14T11:39:39;5.93;;;3.50;;
56413;SDS011;42318;48.452;19.526;2024-02-14T11:42:40;5.10;;;3.33;;
56413;SDS011;42318;48.452;19.526;2024-02-14T11:45:41;5.47;;;3.72;;
56413;SDS011;42318;48.452;19.526;2024-02-14T11:48:42;5.88;;;3.67;;
56413;SDS011;42318;48.452;19.526;2024-02-14T11:51:46;8.00;;;4.07;;
56413;SDS011;42318;48.452;19.526;2024-02-14T11:54:48;7.60;;;4.55;;
56413;SDS011;42318;48.452;19.526;2024-02-14T11:57:49;7.90;;;4.82;;
56413;SDS011;42318;48.452;19.526;2024-02-14T12:00:51;7.68;;;4.60;;
56413;SDS011;42318;48.452;19.526;2024-02-14T12:03:52;11.73;;;4.53;;
56413;SDS011;42318;48.452;19.526;2024-02-14T12:06:53;8.50;;;5.35;;
56413;SDS011;42318;48.452;19.526;2024-02-14T12:09:55;7.78;;;4.57;;
56413;SDS011;42318;48.452;19.526;2024-02-14T12:12:55;7.80;;;5.05;;
56413;SDS011;42318;48.452;19.526;2024-02-14T12:15:56;10.48;;;4.72;;
56413;SDS011;42318;48.452;19.526;2024-02-14T12:19:15;7.07;;;4.95;;
56413;SDS011;42318;48.452;19.526;2024-02-14T12:22:16;12.52;;;4.57;;
56413;SDS011;42318;48.452;19.526;2024-02-14T12:25:20;9.02;;;4.82;;
56413;SDS011;42318;48.452;19.526;2024-02-14T12:28:22;8.45;;;4.70;;
56413;SDS011;42318;48.452;19.526;2024-02-14T12:31:23;8.93;;;4.72;;
56413;SDS011;42318;48.452;19.526;2024-02-14T12:34:27;8.43;;;4.97;;
56413;SDS011;42318;48.452;19.526;2024-02-14T12:37:28;10.60;;;4.78;;
56413;SDS011;42318;48.452;19.526;2024-02-14T12:40:29;8.93;;;4.95;;
56413;SDS011;42318;48.452;19.526;2024-02-14T12:43:30;7.60;;;4.32;;
56413;SDS011;42318;48.452;19.526;2024-02-14T12:46:30;9.43;;;5.13;;
56413;SDS011;42318;48.452;19.526;2024-02-14T12:49:31;6.07;;;4.30;;
56413;SDS011;42318;48.452;19.526;2024-02-14T12:52:33;9.57;;;4.93;;
56413;SDS011;42318;48.452;19.526;2024-02-14T12:55:35;8.60;;;4.78;;
56413;SDS011;42318;48.452;19.526;2024-02-14T12:58:35;9.27;;;4.68;;
56413;SDS011;42318;48.452;19.526;2024-02-14T13:01:36;8.05;;;4.70;;
56413;SDS011;42318;48.452;19.526;2024-02-14T13:04:37;6.88;;;4.93;;
56413;SDS011;42318;48.452;19.526;2024-02-14T13:07:39;9.57;;;4.68;;
56413;SDS011;42318;48.452;19.526;2024-02-14T13:10:40;9.80;;;4.60;;
56413;SDS011;42318;48.452;19.526;2024-02-14T13:13:40;10.05;;;4.13;;
56413;SDS011;42318;48.452;19.526;2024-02-14T13:16:42;7.38;;;4.68;;
56413;SDS011;42318;48.452;19.526;2024-02-14T13:19:43;8.18;;;4.28;;
56413;SDS011;42318;48.452;19.526;2024-02-14T13:22:44;9.43;;;5.07;;
56413;SDS011;42318;48.452;19.526;2024-02-14T13:25:44;10.38;;;4.90;;
56413;SDS011;42318;48.452;19.526;2024-02-14T13:28:45;7.32;;;4.45;;
56413;SDS011;42318;48.452;19.526;2024-02-14T13:31:46;7.60;;;4.50;;
56413;SDS011;42318;48.452;19.526;2024-02-14T13:34:47;9.65;;;4.10;;
56413;SDS011;42318;48.452;19.526;2024-02-14T13:37:49;11.98;;;5.30;;
56413;SDS011;42318;48.452;19.526;2024-02-14T13:40:50;7.82;;;4.70;;
56413;SDS011;42318;48.452;19.526;2024-02-14T13:43:51;7.95;;;4.97;;
56413;SDS011;42318;48.452;19.526;2024-02-14T13:46:51;7.38;;;4.63;;
56413;SDS011;42318;48.452;19.526;2024-02-14T13:49:53;10.52;;;5.10;;
56413;SDS011;42318;48.452;19.526;2024-02-14T13:52:54;9.90;;;4.60;;
56413;SDS011;42318;48.452;19.526;2024-02-14T13:55:55;9.15;;;5.03;;
56413;SDS011;42318;48.452;19.526;2024-02-14T13:58:56;7.38;;;4.70;;
56413;SDS011;42318;48.452;19.526;2024-02-14T14:01:57;10.98;;;5.07;;
56413;SDS011;42318;48.452;19.526;2024-02-14T14:04:57;9.45;;;4.90;;
56413;SDS011;42318;48.452;19.526;2024-02-14T14:07:58;11.30;;;4.72;;
56413;SDS011;42318;48.452;19.526;2024-02-14T14:11:02;6.45;;;4.70;;
56413;SDS011;42318;48.452;19.526;2024-02-14T16:35:45;6.20;;;4.00;;
56413;SDS011;42318;48.452;19.526;2024-02-14T16:38:46;7.78;;;4.47;;
56413;SDS011;42318;48.452;19.526;2024-02-14T16:41:47;5.10;;;4.00;;
56413;SDS011;42318;48.452;19.526;2024-02-14T16:44:47;5.80;;;4.47;;
56413;SDS011;42318;48.452;19.526;2024-02-14T16:47:48;7.13;;;4.38;;
56413;SDS011;42318;48.452;19.526;2024-02-14T16:50:49;7.15;;;4.65;;
56413;SDS011;42318;48.452;19.526;2024-02-14T16:53:50;10.18;;;4.22;;
56413;SDS011;42318;48.452;19.526;2024-02-14T16:56:51;6.00;;;3.72;;
56413;SDS011;42318;48.452;19.526;2024-02-14T16:59:52;7.10;;;4.68;;
56413;SDS011;42318;48.452;19.526;2024-02-14T17:02:53;7.78;;;4.40;;
56413;SDS011;42318;48.452;19.526;2024-02-14T17:05:53;6.38;;;4.57;;
56413;SDS011;42318;48.452;19.526;2024-02-14T17:08:55;5.88;;;4.07;;
56413;SDS011;42318;48.452;19.526;2024-02-14T17:11:55;7.32;;;4.05;;
56413;SDS011;42318;48.452;19.526;2024-02-14T17:14:56;5.90;;;3.92;;
56413;SDS011;42318;48.452;19.526;2024-02-14T17:17:57;6.20;;;3.80;;
56413;SDS011;42318;48.452;19.526;2024-02-14T17:20:58;7.40;;;3.70;;
56413;SDS011;42318;48.452;19.526;2024-02-14T17:23:59;6.88;;;3.78;;
56413;SDS011;42318;48.452;19.526;2024-02-14T17:27:01;5.10;;;3.70;;
56413;SDS011;42318;48.452;19.526;2024-02-14T17:30:02;8.30;;;4.07;;
56413;SDS011;42318;48.452;19.526;2024-02-14T17:33:09;5.50;;;3.78;;
56413;SDS011;42318;48.452;19.526;2024-02-14T17:36:10;4.45;;;3.67;;
56413;SDS011;42318;48.452;19.526;2024-02-14T17:39:11;4.95;;;3.65;;
56413;SDS011;42318;48.452;19.526;2024-02-14T17:42:11;6.40;;;3.55;;
56413;SDS011;42318;48.452;19.526;2024-02-14T17:45:12;5.38;;;3.53;;
56413;SDS011;42318;48.452;19.526;2024-02-14T17:48:13;4.97;;;3.58;;
56413;SDS011;42318;48.452;19.526;2024-02-14T17:51:14;10.18;;;3.72;;
56413;SDS011;42318;48.452;19.526;2024-02-14T17:54:15;5.57;;;3.95;;
56413;SDS011;42318;48.452;19.526;2024-02-14T17:57:17;5.75;;;3.42;;
56413;SDS011;42318;48.452;19.526;2024-02-14T18:00:18;6.03;;;3.42;;
56413;SDS011;42318;48.452;19.526;2024-02-14T18:03:20;6.25;;;3.78;;
56413;SDS011;42318;48.452;19.526;2024-02-14T18:06:21;5.22;;;3.42;;
56413;SDS011;42318;48.452;19.526;2024-02-14T18:09:21;5.10;;;3.25;;
56413;SDS011;42318;48.452;19.526;2024-02-14T18:12:23;6.03;;;3.53;;
56413;SDS011;42318;48.452;19.526;2024-02-14T18:15:26;4.53;;;3.10;;
56413;SDS011;42318;48.452;19.526;2024-02-14T18:18:26;4.25;;;3.30;;
56413;SDS011;42318;48.452;19.526;2024-02-14T18:21:30;4.13;;;3.03;;
56413;SDS011;42318;48.452;19.526;2024-02-14T18:24:32;5.70;;;3.55;;
56413;SDS011;42318;48.452;19.526;2024-02-14T18:27:32;3.72;;;3.00;;
56413;SDS011;42318;48.452;19.526;2024-02-14T18:30:33;4.70;;;3.45;;
56413;SDS011;42318;48.452;19.526;2024-02-14T18:33:34;4.57;;;3.42;;
56413;SDS011;42318;48.452;19.526;2024-02-14T18:36:34;4.70;;;3.13;;
56413;SDS011;42318;48.452;19.526;2024-02-14T18:39:35;5.70;;;3.50;;
56413;SDS011;42318;48.452;19.526;2024-02-14T18:42:37;4.00;;;3.10;;
56413;SDS011;42318;48.452;19.526;2024-02-14T18:45:38;4.50;;;2.85;;
56413;SDS011;42318;48.452;19.526;2024-02-14T18:48:39;5.70;;;3.50;;
56413;SDS011;42318;48.452;19.526;2024-02-14T18:51:39;4.22;;;3.15;;
56413;SDS011;42318;48.452;19.526;2024-02-14T18:54:41;3.80;;;3.08;;
56413;SDS011;42318;48.452;19.526;2024-02-14T18:57:42;5.28;;;3.30;;
56413;SDS011;42318;48.452;19.526;2024-02-14T19:00:43;3.80;;;2.60;;
56413;SDS011;42318;48.452;19.526;2024-02-14T19:03:44;4.43;;;3.15;;
56413;SDS011;42318;48.452;19.526;2024-02-14T19:06:44;3.75;;;2.85;;
56413;SDS011;42318;48.452;19.526;2024-02-14T19:09:45;5.03;;;2.83;;
56413;SDS011;42318;48.452;19.526;2024-02-14T19:12:45;3.95;;;3.00;;
56413;SDS011;42318;48.452;19.526;2024-02-14T19:15:46;5.65;;;2.92;;
56413;SDS011;42318;48.452;19.526;2024-02-14T19:18:47;5.20;;;3.05;;
56413;SDS011;42318;48.452;19.526;2024-02-14T19:21:48;5.13;;;2.70;;
56413;SDS011;42318;48.452;19.526;2024-02-14T19:24:48;3.90;;;2.70;;
56413;SDS011;42318;48.452;19.526;2024-02-14T19:27:49;3.78;;;3.05;;
56413;SDS011;42318;48.452;19.526;2024-02-14T19:30:50;4.22;;;3.05;;
56413;SDS011;42318;48.452;19.526;2024-02-14T19:33:51;3.67;;;2.67;;
56413;SDS011;42318;48.452;19.526;2024-02-14T19:36:53;4.55;;;2.65;;
56413;SDS011;42318;48.452;19.526;2024-02-14T19:39:54;3.42;;;2.78;;
56413;SDS011;42318;48.452;19.526;2024-02-14T19:42:55;4.13;;;2.80;;
56413;SDS011;42318;48.452;19.526;2024-02-14T19:45:56;3.60;;;2.50;;
56413;SDS011;42318;48.452;19.526;2024-02-14T19:48:56;2.88;;;2.53;;
56413;SDS011;42318;48.452;19.526;2024-02-14T19:51:57;3.25;;;2.58;;
56413;SDS011;42318;48.452;19.526;2024-02-14T19:54:58;5.57;;;2.67;;
56413;SDS011;42318;48.452;19.526;2024-02-14T19:57:59;4.20;;;2.85;;
56413;SDS011;42318;48.452;19.526;2024-02-14T20:00:59;5.60;;;3.13;;
56413;SDS011;42318;48.452;19.526;2024-02-14T20:04:00;5.32;;;2.78;;
56413;SDS011;42318;48.452;19.526;2024-02-14T20:07:01;6.20;;;2.80;;
56413;SDS011;42318;48.452;19.526;2024-02-14T20:10:02;9.07;;;2.75;;
56413;SDS011;42318;48.452;19.526;2024-02-14T20:13:06;10.63;;;3.33;;
56413;SDS011;42318;48.452;19.526;2024-02-14T20:16:07;6.10;;;2.80;;
56413;SDS011;42318;48.452;19.526;2024-02-14T20:19:07;8.77;;;3.15;;
56413;SDS011;42318;48.452;19.526;2024-02-14T20:22:09;4.30;;;2.55;;